Time;durP1;ratioP1;P1;durP2;ratioP2;P2;SDS_P1;SDS_P2;PMS_P1;PMS_P2;Temp;Humidity;BMP_temperature;BMP_pressure;BME280_temperature;BME280_humidity;BME280_pressure;Samples;Min_cycle;Max_cycle;Signal;HPM_P1;HPM_P2
2023/07/11 00:02:24;;;;;;;15.73;11.57;;;19.10;99.90;;;;;;5248939;28;20530;-70
2023/07/11 00:05:00;;;;;;;15.05;12.00;;;19.20;99.90;;;;;;5248843;28;20067;-69
2023/07/11 00:07:31;;;;;;;16.45;11.77;;;18.90;99.90;;;;;;5248525;28;20488;-70
2023/07/11 00:10:02;;;;;;;13.95;11.70;;;19.20;99.90;;;;;;5248538;28;20052;-70
2023/07/11 00:12:33;;;;;;;13.73;10.10;;;19.20;99.90;;;;;;5248749;28;20538;-70
2023/07/11 00:15:06;;;;;;;15.13;10.00;;;19.10;99.90;;;;;;5248832;28;20024;-70
2023/07/11 00:17:37;;;;;;;12.57;9.73;;;19.00;99.90;;;;;;5248340;28;20435;-70
2023/07/11 00:20:09;;;;;;;16.23;12.05;;;19.00;99.90;;;;;;5248186;28;20077;-71
2023/07/11 00:22:40;;;;;;;16.02;11.90;;;18.90;99.90;;;;;;5248444;28;20036;-70
2023/07/11 00:25:11;;;;;;;13.10;11.68;;;19.00;99.90;;;;;;5248446;28;20464;-70
2023/07/11 00:27:42;;;;;;;12.63;10.75;;;18.90;99.90;;;;;;5248205;28;20763;-70
2023/07/11 00:30:13;;;;;;;11.65;10.43;;;18.90;99.90;;;;;;5248160;28;20032;-70
2023/07/11 00:32:44;;;;;;;13.38;10.48;;;19.00;99.90;;;;;;5248120;28;20016;-70
2023/07/11 00:35:15;;;;;;;15.27;11.35;;;19.00;99.90;;;;;;5248183;28;20067;-70
2023/07/11 00:37:45;;;;;;;15.55;12.02;;;18.90;99.90;;;;;;5248003;28;20039;-70
2023/07/11 00:40:16;;;;;;;13.25;11.07;;;18.60;99.90;;;;;;5248156;28;20039;-71
2023/07/11 00:42:52;;;;;;;18.98;11.05;;;18.60;99.90;;;;;;5248107;28;20021;-70
2023/07/11 00:45:49;;;;;;;13.35;11.80;;;18.70;99.90;;;;;;5247902;28;20127;-70
2023/07/11 00:48:22;;;;;;;16.05;11.80;;;18.80;99.90;;;;;;5240644;28;20127;-70
2023/07/11 00:50:55;;;;;;;12.90;11.57;;;19.00;99.90;;;;;;5247878;28;20044;-70
2023/07/11 00:53:27;;;;;;;15.60;11.35;;;19.00;99.90;;;;;;5247913;28;20024;-71
2023/07/11 00:56:02;;;;;;;14.98;11.95;;;19.00;99.90;;;;;;5247657;28;20033;-70
2023/07/11 00:58:35;;;;;;;15.35;11.77;;;18.90;99.90;;;;;;5247796;28;20024;-70
2023/07/11 01:01:07;;;;;;;13.63;11.98;;;18.80;99.90;;;;;;5247731;28;20024;-71
2023/07/11 01:03:38;;;;;;;15.65;11.85;;;18.70;99.90;;;;;;5247547;28;20029;-70
2023/07/11 01:06:15;;;;;;;13.43;11.30;;;18.80;99.90;;;;;;5247444;28;20029;-70
2023/07/11 01:08:48;;;;;;;13.90;10.55;;;18.90;99.90;;;;;;5247053;28;20064;-70
2023/07/11 01:11:20;;;;;;;13.23;11.20;;;18.80;99.90;;;;;;5247355;28;20533;-70
2023/07/11 01:13:51;;;;;;;11.75;10.55;;;18.90;99.90;;;;;;5247416;28;20024;-70
2023/07/11 01:16:22;;;;;;;14.43;10.93;;;18.80;99.90;;;;;;5247541;28;20130;-70
2023/07/11 01:18:53;;;;;;;12.75;10.27;;;18.90;99.90;;;;;;5247431;28;20192;-70
2023/07/11 01:21:24;;;;;;;13.18;11.20;;;18.90;99.90;;;;;;5247280;28;20028;-70
2023/07/11 01:23:55;;;;;;;14.45;12.27;;;18.70;99.90;;;;;;5247247;28;20033;-70
2023/07/11 01:26:25;;;;;;;12.82;11.25;;;18.70;99.90;;;;;;5247347;28;20107;-70
2023/07/11 01:28:57;;;;;;;14.13;10.75;;;18.60;99.90;;;;;;5247380;28;20037;-71
2023/07/11 01:31:27;;;;;;;13.00;11.60;;;18.60;99.90;;;;;;5247140;28;20095;-70
2023/07/11 01:33:58;;;;;;;12.43;11.02;;;18.60;99.90;;;;;;5247238;28;20036;-70
2023/07/11 01:36:29;;;;;;;13.88;12.07;;;18.70;99.90;;;;;;5247258;28;20031;-70
2023/07/11 01:39:00;;;;;;;14.18;11.73;;;18.50;99.90;;;;;;5713272;23;20075;-70
2023/07/11 01:41:31;;;;;;;14.50;11.05;;;18.60;99.90;;;;;;5247038;28;20414;-71
2023/07/11 01:44:02;;;;;;;15.40;11.63;;;18.40;99.90;;;;;;5247061;28;20025;-70
2023/07/11 01:46:33;;;;;;;11.98;10.50;;;18.60;99.90;;;;;;5247134;28;20062;-70
2023/07/11 01:49:04;;;;;;;12.82;11.48;;;18.50;99.90;;;;;;5246994;28;20159;-70
2023/07/11 01:51:34;;;;;;;13.20;11.52;;;18.50;99.90;;;;;;5246938;28;20063;-70
2023/07/11 01:54:05;;;;;;;14.05;11.23;;;18.60;99.90;;;;;;5247041;28;20116;-70
2023/07/11 01:56:36;;;;;;;15.13;10.77;;;18.50;99.90;;;;;;5246802;28;20036;-70
2023/07/11 01:59:07;;;;;;;12.70;10.43;;;18.40;99.90;;;;;;5247073;28;20119;-71
2023/07/11 02:01:38;;;;;;;11.85;10.05;;;18.40;99.90;;;;;;5246839;28;20103;-70
2023/07/11 02:04:09;;;;;;;12.10;10.85;;;18.50;99.90;;;;;;5246945;28;20024;-71
2023/07/11 02:06:40;;;;;;;14.50;11.32;;;18.50;99.90;;;;;;5246850;28;20039;-70
2023/07/11 02:09:12;;;;;;;12.75;10.63;;;18.50;99.90;;;;;;5246678;28;20131;-70
2023/07/11 02:11:44;;;;;;;10.88;9.77;;;18.50;99.90;;;;;;5246773;28;20033;-70
2023/07/11 02:14:18;;;;;;;12.95;10.13;;;18.20;99.90;;;;;;5246820;28;20078;-70
2023/07/11 02:16:51;;;;;;;12.05;10.77;;;18.30;99.90;;;;;;5246654;28;20043;-70
2023/07/11 02:19:23;;;;;;;13.07;10.50;;;18.40;99.90;;;;;;5246679;28;20028;-70
2023/07/11 02:21:54;;;;;;;12.10;10.20;;;18.30;99.90;;;;;;5246687;28;20100;-70
2023/07/11 02:24:25;;;;;;;11.07;9.85;;;18.10;99.90;;;;;;5246743;28;20547;-70
2023/07/11 02:26:56;;;;;;;11.55;10.13;;;18.00;99.90;;;;;;5246698;28;20467;-71
2023/07/11 02:29:26;;;;;;;16.48;10.43;;;18.00;99.90;;;;;;5246526;28;20098;-70
2023/07/11 02:31:57;;;;;;;13.13;11.13;;;18.00;99.90;;;;;;5246720;28;20024;-71
2023/07/11 02:34:28;;;;;;;12.73;10.82;;;17.90;99.90;;;;;;5246715;28;20103;-70
2023/07/11 02:36:59;;;;;;;13.98;10.65;;;17.90;99.90;;;;;;5246593;28;20484;-70
2023/07/11 02:39:30;;;;;;;13.30;11.30;;;18.10;99.90;;;;;;5246297;28;20102;-71
2023/07/11 02:42:00;;;;;;;12.93;10.93;;;18.00;99.90;;;;;;5248209;28;20027;-71
2023/07/11 02:44:31;;;;;;;12.90;10.90;;;17.90;99.90;;;;;;5250721;28;20031;-70
2023/07/11 02:47:02;;;;;;;12.85;10.93;;;18.00;99.90;;;;;;5250366;28;20545;-71
2023/07/11 02:49:33;;;;;;;12.85;10.70;;;18.00;99.90;;;;;;5250321;28;20071;-71
2023/07/11 02:52:07;;;;;;;14.02;11.45;;;18.00;99.90;;;;;;5250342;28;20016;-70
2023/07/11 02:54:38;;;;;;;15.85;12.07;;;18.20;99.90;;;;;;5250334;28;20111;-70
2023/07/11 02:57:11;;;;;;;13.40;12.00;;;18.10;99.90;;;;;;5250315;28;20108;-70
2023/07/11 02:59:42;;;;;;;13.60;11.30;;;17.80;99.90;;;;;;5250023;28;20029;-69
2023/07/11 03:02:12;;;;;;;14.13;12.52;;;18.00;99.90;;;;;;5250220;28;20038;-70
2023/07/11 03:04:43;;;;;;;18.42;11.55;;;18.00;99.90;;;;;;5250018;28;20032;-70
2023/07/11 03:07:14;;;;;;;18.58;12.23;;;18.00;99.90;;;;;;5249788;28;20074;-70
2023/07/11 03:09:45;;;;;;;14.82;13.32;;;17.80;99.90;;;;;;5249628;28;20383;-69
2023/07/11 03:12:16;;;;;;;16.10;14.55;;;17.80;99.90;;;;;;5249773;28;20024;-69
2023/07/11 03:14:49;;;;;;;14.88;12.93;;;17.90;99.90;;;;;;5249936;28;20036;-71
2023/07/11 03:17:20;;;;;;;15.27;13.77;;;18.00;99.90;;;;;;5249658;28;20021;-70
2023/07/11 03:19:50;;;;;;;15.27;13.68;;;18.20;99.90;;;;;;5249682;28;20793;-70
2023/07/11 03:22:21;;;;;;;14.75;13.18;;;18.30;99.90;;;;;;5249694;28;20031;-70
2023/07/11 03:24:52;;;;;;;18.30;12.93;;;18.30;99.90;;;;;;5249755;28;20070;-70
2023/07/11 03:27:23;;;;;;;15.10;12.77;;;18.20;99.90;;;;;;5249512;28;20044;-70
2023/07/11 03:29:54;;;;;;;12.23;10.93;;;18.30;99.90;;;;;;5249511;28;20117;-71
2023/07/11 03:32:24;;;;;;;15.85;12.68;;;18.40;99.90;;;;;;5249656;28;20025;-70
2023/07/11 03:34:55;;;;;;;15.27;12.00;;;18.60;99.90;;;;;;5249338;28;20107;-70
2023/07/11 03:37:26;;;;;;;14.82;11.82;;;18.60;99.90;;;;;;5249204;28;20021;-71
2023/07/11 03:39:57;;;;;;;16.60;12.15;;;18.60;99.90;;;;;;5249058;28;20060;-70
2023/07/11 03:42:28;;;;;;;14.90;12.82;;;18.70;99.90;;;;;;5249352;28;20372;-70
2023/07/11 03:44:58;;;;;;;13.40;12.10;;;18.80;99.90;;;;;;5249431;28;20040;-70
2023/07/11 03:47:29;;;;;;;15.23;10.95;;;19.00;99.90;;;;;;5249431;28;20115;-71
2023/07/11 03:50:00;;;;;;;13.68;10.77;;;19.00;99.90;;;;;;5249193;28;20033;-70
2023/07/11 03:52:31;;;;;;;12.60;11.07;;;19.00;99.90;;;;;;5249170;28;20169;-70
2023/07/11 03:55:02;;;;;;;13.98;11.35;;;19.10;99.90;;;;;;5249121;28;20017;-70
2023/07/11 03:57:33;;;;;;;14.20;10.90;;;19.10;99.90;;;;;;5249120;28;20024;-71
2023/07/11 04:00:04;;;;;;;12.85;10.35;;;19.30;99.90;;;;;;5248788;28;20040;-71
2023/07/11 04:02:35;;;;;;;15.15;10.88;;;19.40;99.90;;;;;;5248889;28;20028;-70
2023/07/11 04:05:06;;;;;;;11.38;9.48;;;19.40;99.90;;;;;;5248770;28;20008;-70
2023/07/11 04:07:37;;;;;;;18.15;10.80;;;19.50;99.90;;;;;;5248510;28;20029;-70
2023/07/11 04:10:12;;;;;;;12.13;10.85;;;19.60;99.90;;;;;;5248612;28;20086;-70
2023/07/11 04:12:42;;;;;;;17.75;10.10;;;19.70;99.90;;;;;;5248735;28;20020;-70
2023/07/11 04:15:14;;;;;;;11.77;9.65;;;19.80;99.90;;;;;;5248613;28;20031;-70
2023/07/11 04:17:45;;;;;;;11.13;9.68;;;19.90;99.90;;;;;;5248706;28;20017;-71
2023/07/11 04:20:15;;;;;;;17.08;9.93;;;19.90;99.90;;;;;;5248513;28;20043;-70
2023/07/11 04:22:46;;;;;;;11.65;9.50;;;20.00;99.90;;;;;;5248554;28;20104;-70
2023/07/11 04:25:17;;;;;;;12.63;10.23;;;20.10;99.90;;;;;;5248262;28;20159;-70
2023/07/11 04:27:48;;;;;;;10.52;9.43;;;20.10;99.90;;;;;;5248255;28;20550;-70
2023/07/11 04:30:18;;;;;;;13.02;10.98;;;20.30;99.90;;;;;;5248236;28;20036;-70
2023/07/11 04:32:51;;;;;;;13.38;12.02;;;20.10;99.90;;;;;;5248267;28;20087;-70
2023/07/11 04:35:22;;;;;;;13.32;11.93;;;20.30;99.90;;;;;;5248103;28;20020;-71
2023/07/11 04:37:53;;;;;;;14.68;11.73;;;20.40;99.90;;;;;;5247806;28;20506;-70
2023/07/11 04:40:23;;;;;;;15.40;13.82;;;20.60;99.90;;;;;;5248022;28;20438;-70
2023/07/11 04:42:58;;;;;;;13.20;12.05;;;20.60;99.90;;;;;;5247990;28;20021;-70
2023/07/11 04:45:30;;;;;;;16.23;14.80;;;20.80;99.90;;;;;;5248563;28;20025;-70
2023/07/11 04:48:01;;;;;;;16.55;15.00;;;20.90;99.90;;;;;;5247916;28;20027;-70
2023/07/11 04:50:32;;;;;;;14.70;13.48;;;20.90;99.90;;;;;;5247863;28;20032;-70
2023/07/11 04:53:03;;;;;;;15.13;13.55;;;21.00;99.90;;;;;;5247842;28;20029;-70
2023/07/11 04:55:34;;;;;;;13.90;12.52;;;21.00;99.90;;;;;;5247912;28;20028;-70
2023/07/11 04:58:05;;;;;;;13.40;12.07;;;21.00;99.90;;;;;;5248010;28;20142;-70
2023/07/11 05:00:35;;;;;;;13.35;12.10;;;20.90;99.90;;;;;;5248005;28;20033;-70
2023/07/11 05:03:08;;;;;;;14.25;11.75;;;20.90;99.90;;;;;;5247685;28;20733;-70
2023/07/11 05:05:38;;;;;;;12.95;11.85;;;21.00;99.90;;;;;;5247353;28;20029;-70
2023/07/11 05:08:09;;;;;;;13.63;10.98;;;21.40;99.90;;;;;;5247485;28;20029;-70
2023/07/11 05:10:52;;;;;;;13.45;10.65;;;21.50;99.90;;;;;;5247660;28;20040;-70
2023/07/11 05:13:23;;;;;;;10.35;9.35;;;21.80;99.90;;;;;;5247531;28;20384;-71
2023/07/11 05:16:02;;;;;;;9.90;9.02;;;21.90;99.90;;;;;;5247573;28;20116;-70
2023/07/11 05:18:34;;;;;;;9.32;8.43;;;22.20;99.90;;;;;;5247388;28;20016;-70
2023/07/11 05:21:06;;;;;;;10.05;9.15;;;22.40;99.90;;;;;;5247407;28;20036;-70
2023/07/11 05:23:38;;;;;;;16.48;10.95;;;22.40;99.90;;;;;;5247526;28;20047;-70
2023/07/11 05:26:09;;;;;;;13.20;11.98;;;22.50;99.90;;;;;;5247455;28;20029;-70
2023/07/11 05:28:40;;;;;;;15.85;12.30;;;22.70;99.90;;;;;;5247121;28;20063;-70
2023/07/11 05:31:11;;;;;;;12.23;11.02;;;22.60;99.90;;;;;;5247255;28;20029;-70
2023/07/11 05:33:42;;;;;;;10.23;9.18;;;22.60;99.90;;;;;;5247233;28;20028;-70
2023/07/11 05:36:34;;;;;;;11.43;9.52;;;22.90;99.90;;;;;;5247312;28;20380;-70
2023/07/11 05:39:11;;;;;;;12.52;9.65;;;23.00;99.90;;;;;;5246915;28;20056;-70
2023/07/11 05:41:47;;;;;;;10.77;8.55;;;23.20;99.90;;;;;;5247040;28;20041;-70
2023/07/11 05:44:18;;;;;;;9.35;8.35;;;23.20;99.90;;;;;;5247279;28;20031;-70
2023/07/11 05:46:49;;;;;;;10.65;8.60;;;23.30;99.90;;;;;;5246965;28;20025;-70
2023/07/11 05:49:20;;;;;;;10.70;8.10;;;23.50;99.90;;;;;;5247048;28;20033;-70
2023/07/11 05:51:51;;;;;;;10.98;7.82;;;23.70;99.90;;;;;;5247067;28;20046;-70
2023/07/11 05:54:21;;;;;;;11.20;8.02;;;23.70;99.90;;;;;;5246879;28;20025;-71
2023/07/11 05:56:52;;;;;;;11.13;7.47;;;23.90;99.90;;;;;;5246886;28;20472;-70
2023/07/11 05:59:23;;;;;;;14.20;8.90;;;23.90;99.90;;;;;;5247119;28;20052;-70
2023/07/11 06:01:54;;;;;;;10.75;8.40;;;24.20;99.90;;;;;;5246839;28;20027;-70
2023/07/11 06:04:24;;;;;;;14.23;9.35;;;24.20;99.90;;;;;;5246884;28;20032;-70
2023/07/11 06:06:55;;;;;;;10.93;8.75;;;24.40;99.90;;;;;;5246832;28;20036;-71
2023/07/11 06:09:26;;;;;;;15.18;10.32;;;24.40;99.90;;;;;;5246734;28;20043;-70
2023/07/11 06:11:57;;;;;;;13.55;10.30;;;24.50;99.90;;;;;;5247055;28;20435;-70
2023/07/11 06:14:28;;;;;;;13.45;11.60;;;24.60;99.90;;;;;;5247194;28;20127;-70
2023/07/11 06:16:58;;;;;;;13.30;11.13;;;24.70;99.90;;;;;;5248443;28;20020;-70
2023/07/11 06:19:29;;;;;;;16.42;12.80;;;24.70;99.90;;;;;;5250967;28;20107;-70
2023/07/11 06:22:00;;;;;;;12.93;10.10;;;25.00;99.90;;;;;;5250833;28;20036;-70
2023/07/11 06:24:31;;;;;;;11.15;9.93;;;25.10;99.90;;;;;;5250755;28;20368;-70
2023/07/11 06:27:01;;;;;;;12.48;10.60;;;25.20;99.90;;;;;;5250691;28;20020;-70
2023/07/11 06:29:32;;;;;;;15.35;12.50;;;25.40;99.90;;;;;;5250546;28;20052;-71
2023/07/11 06:32:03;;;;;;;17.67;12.88;;;25.50;99.90;;;;;;5250714;28;20028;-70
2023/07/11 06:34:34;;;;;;;17.80;11.93;;;25.50;99.90;;;;;;5250591;28;20020;-70
2023/07/11 06:37:05;;;;;;;17.63;13.02;;;25.60;99.90;;;;;;5250560;28;20020;-70
2023/07/11 06:39:36;;;;;;;12.55;10.35;;;25.70;99.90;;;;;;5250231;28;20049;-71
2023/07/11 06:42:06;;;;;;;16.80;11.35;;;25.70;99.90;;;;;;5250391;28;20028;-70
2023/07/11 06:44:37;;;;;;;20.27;12.02;;;25.90;99.90;;;;;;5250421;28;20031;-70
2023/07/11 06:47:08;;;;;;;20.23;13.35;;;26.10;99.90;;;;;;5249121;28;20465;-70
2023/07/11 06:49:39;;;;;;;21.17;14.05;;;26.20;99.90;;;;;;5250068;28;20476;-70
2023/07/11 06:52:10;;;;;;;23.50;14.98;;;26.40;99.90;;;;;;5250243;28;20017;-70
2023/07/11 06:54:41;;;;;;;24.83;15.85;;;26.30;99.90;;;;;;5250086;28;20024;-70
2023/07/11 06:57:12;;;;;;;23.90;17.27;;;26.10;99.90;;;;;;5249979;28;20074;-70
2023/07/11 06:59:43;;;;;;;24.23;16.90;;;26.40;99.90;;;;;;5250036;28;20109;-71
2023/07/11 07:02:14;;;;;;;28.92;17.42;;;26.40;99.90;;;;;;5249991;28;20161;-70
2023/07/11 07:04:45;;;;;;;26.38;16.73;;;26.60;99.90;;;;;;5250151;28;20025;-70
2023/07/11 07:07:15;;;;;;;24.17;16.05;;;26.50;99.90;;;;;;5249750;28;20020;-70
2023/07/11 07:09:46;;;;;;;27.60;16.55;;;26.80;99.90;;;;;;5249827;28;20106;-70
2023/07/11 07:12:17;;;;;;;22.65;15.95;;;27.00;99.90;;;;;;5249936;28;20021;-70
2023/07/11 07:14:48;;;;;;;22.92;16.35;;;27.00;99.90;;;;;;5249956;28;20388;-71
2023/07/11 07:17:19;;;;;;;22.15;13.65;;;27.20;99.90;;;;;;5250064;28;20086;-70
2023/07/11 07:19:50;;;;;;;22.27;13.15;;;27.30;99.90;;;;;;5249857;28;20107;-70
2023/07/11 07:22:21;;;;;;;24.48;13.38;;;27.30;99.90;;;;;;5249678;28;20095;-71
2023/07/11 07:24:51;;;;;;;15.85;11.75;;;27.50;99.90;;;;;;5249622;28;20035;-70
2023/07/11 07:27:22;;;;;;;21.40;12.10;;;27.40;99.90;;;;;;5249208;28;20024;-70
2023/07/11 07:29:53;;;;;;;14.88;11.05;;;27.60;99.90;;;;;;5249399;28;20101;-71
2023/07/11 07:32:24;;;;;;;16.02;10.98;;;27.70;99.90;;;;;;5249568;28;20499;-70
2023/07/11 07:34:54;;;;;;;17.23;10.57;;;27.80;99.90;;;;;;5249506;28;20032;-71
2023/07/11 07:37:25;;;;;;;16.40;11.55;;;28.00;99.90;;;;;;5249331;28;20114;-70
2023/07/11 07:39:56;;;;;;;21.48;13.23;;;28.10;99.90;;;;;;5249213;28;20433;-71
2023/07/11 07:42:27;;;;;;;21.45;12.80;;;28.00;99.90;;;;;;5249263;28;20029;-71
2023/07/11 07:44:58;;;;;;;14.38;11.20;;;28.10;99.90;;;;;;5249183;28;20060;-70
2023/07/11 07:47:29;;;;;;;15.00;9.85;;;28.30;99.90;;;;;;5249178;28;20443;-70
2023/07/11 07:49:59;;;;;;;17.25;9.32;;;28.40;99.90;;;;;;5248993;28;20063;-70
2023/07/11 07:52:30;;;;;;;9.13;7.40;;;28.50;99.90;;;;;;5248978;28;20367;-70
2023/07/11 07:55:01;;;;;;;9.80;6.93;;;28.60;99.90;;;;;;5248930;28;20480;-70
2023/07/11 07:57:32;;;;;;;8.15;6.43;;;28.80;99.90;;;;;;5248915;28;20352;-71
2023/07/11 08:00:04;;;;;;;7.53;6.03;;;28.80;99.90;;;;;;5248889;28;20032;-70
2023/07/11 08:02:35;;;;;;;11.15;6.57;;;28.80;99.90;;;;;;5248889;28;20074;-70
2023/07/11 08:05:06;;;;;;;7.07;6.30;;;28.90;99.90;;;;;;5248829;28;20393;-71
2023/07/11 08:07:37;;;;;;;10.55;6.60;;;29.10;99.90;;;;;;5248455;28;20043;-71
2023/07/11 08:10:08;;;;;;;12.55;6.30;;;29.20;99.90;;;;;;5248625;28;20044;-70
2023/07/11 08:12:39;;;;;;;9.05;5.43;;;29.30;99.90;;;;;;5248699;28;20017;-71
2023/07/11 08:15:11;;;;;;;8.15;5.43;;;29.40;99.90;;;;;;5248460;28;20364;-71
2023/07/11 08:17:45;;;;;;;8.93;5.07;;;29.40;99.90;;;;;;5248657;28;20354;-71
2023/07/11 08:20:16;;;;;;;8.40;5.50;;;29.50;99.90;;;;;;5248505;28;20380;-71
2023/07/11 08:22:47;;;;;;;11.70;6.18;;;29.50;99.90;;;;;;5247216;28;20025;-70
2023/07/11 08:25:18;;;;;;;6.80;6.20;;;29.60;99.90;;;;;;5247104;28;20025;-70
2023/07/11 08:27:49;;;;;;;7.90;7.20;;;29.70;99.90;;;;;;5248408;28;20029;-70
2023/07/11 08:30:20;;;;;;;8.73;7.90;;;29.70;99.90;;;;;;5248225;28;20105;-71
2023/07/11 08:32:50;;;;;;;10.75;8.30;;;29.80;99.90;;;;;;5248647;28;20032;-71
2023/07/11 08:35:21;;;;;;;9.05;8.20;;;29.70;99.90;;;;;;5248415;28;20150;-70
2023/07/11 08:37:52;;;;;;;9.07;8.18;;;29.90;99.90;;;;;;5247810;28;20353;-70
2023/07/11 08:40:29;;;;;;;8.50;7.63;;;30.00;99.90;;;;;;5247468;28;20032;-70
2023/07/11 08:43:05;;;;;;;9.27;6.68;;;30.00;99.90;;;;;;5248053;28;20029;-70
2023/07/11 08:45:50;;;;;;;7.97;6.10;;;30.00;99.90;;;;;;5247899;28;20033;-70
2023/07/11 08:48:30;;;;;;;8.95;6.78;;;30.10;99.90;;;;;;5247707;28;20586;-70
2023/07/11 08:51:04;;;;;;;13.18;6.07;;;29.90;99.90;;;;;;5247920;28;20496;-71
2023/07/11 08:53:43;;;;;;;5.95;5.45;;;30.10;99.90;;;;;;5247901;28;20030;-70
2023/07/11 08:56:36;;;;;;;7.85;6.10;;;30.20;99.90;;;;;;5247819;28;20036;-70
2023/07/11 08:59:14;;;;;;;6.35;5.47;;;30.10;99.90;;;;;;5247693;28;20046;-71
2023/07/11 09:02:13;;;;;;;10.05;5.88;;;30.30;99.90;;;;;;5247724;28;20731;-71
2023/07/11 09:04:48;;;;;;;6.63;5.55;;;30.50;99.90;;;;;;5246310;28;20480;-70
2023/07/11 09:07:38;;;;;;;6.75;6.13;;;30.50;99.90;;;;;;5247384;28;20021;-71
2023/07/11 09:10:50;;;;;;;8.00;5.72;;;30.60;99.90;;;;;;5247492;28;20039;-71
2023/07/11 09:13:28;;;;;;;9.93;5.78;;;30.50;99.90;;;;;;5246941;28;20032;-70
2023/07/11 09:16:22;;;;;;;8.80;5.43;;;30.40;99.90;;;;;;5247462;28;20487;-70
2023/07/11 09:19:02;;;;;;;5.90;5.30;;;30.10;99.90;;;;;;5247404;28;20043;-70
2023/07/11 09:21:58;;;;;;;6.47;5.40;;;30.40;99.90;;;;;;5247297;28;20012;-70
2023/07/11 09:25:00;;;;;;;9.48;6.20;;;30.50;99.90;;;;;;5247295;28;20055;-70
2023/07/11 09:27:44;;;;;;;9.70;5.72;;;30.70;99.90;;;;;;5247184;28;20428;-70
2023/07/11 09:30:22;;;;;;;6.82;5.70;;;30.80;99.90;;;;;;5247132;28;20043;-71
2023/07/11 09:32:57;;;;;;;8.93;5.35;;;31.00;99.90;;;;;;5247249;28;20020;-70
2023/07/11 09:35:32;;;;;;;7.18;5.15;;;31.00;99.90;;;;;;5247400;28;20044;-71
2023/07/11 09:38:21;;;;;;;6.50;5.90;;;31.00;99.90;;;;;;5247034;28;20039;-70
2023/07/11 09:40:58;;;;;;;9.68;5.40;;;30.90;99.90;;;;;;5247136;28;20090;-70
2023/07/11 09:43:29;;;;;;;6.65;5.30;;;30.70;99.90;;;;;;5247262;28;20023;-70
2023/07/11 09:46:00;;;;;;;6.30;5.20;;;30.90;99.90;;;;;;5247539;28;20539;-70
2023/07/11 09:48:36;;;;;;;5.93;5.35;;;31.20;99.90;;;;;;5247165;28;20021;-71
2023/07/11 09:51:19;;;;;;;8.05;5.38;;;30.90;99.90;;;;;;5250269;28;20060;-71
2023/07/11 09:53:55;;;;;;;9.27;6.07;;;30.80;99.90;;;;;;5254117;28;20020;-70
2023/07/11 09:56:26;;;;;;;7.45;6.35;;;30.80;99.90;;;;;;5254059;28;20016;-70
2023/07/11 09:59:00;;;;;;;9.27;6.68;;;31.00;99.90;;;;;;5253834;28;20035;-70
2023/07/11 10:01:36;;;;;;;7.00;6.20;;;31.40;99.90;;;;;;5253881;28;20031;-70
2023/07/11 10:04:10;;;;;;;8.13;5.82;;;31.40;99.90;;;;;;5253888;28;20126;-71
2023/07/11 10:06:53;;;;;;;7.32;6.63;;;31.40;99.90;;;;;;5253579;28;20042;-71
2023/07/11 10:09:29;;;;;;;9.23;6.97;;;31.10;99.90;;;;;;5253757;28;20036;-71
2023/07/11 10:12:16;;;;;;;8.77;7.50;;;31.30;99.90;;;;;;5253785;28;20116;-71
2023/07/11 10:14:57;;;;;;;8.15;7.40;;;31.30;99.90;;;;;;5253805;28;20060;-71
2023/07/11 10:17:36;;;;;;;11.05;6.90;;;31.30;99.90;;;;;;5253799;28;20036;-71
2023/07/11 10:20:15;;;;;;;8.27;6.82;;;31.00;99.90;;;;;;5253593;28;20028;-70
2023/07/11 10:22:51;;;;;;;7.93;7.30;;;31.40;99.90;;;;;;5253779;28;20476;-71
2023/07/11 10:25:28;;;;;;;8.75;7.97;;;31.70;99.90;;;;;;5253658;28;20046;-70
2023/07/11 10:28:04;;;;;;;7.95;7.28;;;31.60;99.90;;;;;;5253626;28;20099;-71
2023/07/11 10:30:38;;;;;;;8.63;7.82;;;32.00;99.90;;;;;;5253610;28;20040;-71
2023/07/11 10:33:23;;;;;;;8.20;7.35;;;31.80;99.90;;;;;;5253582;28;20043;-70
2023/07/11 10:36:09;;;;;;;8.90;8.20;;;31.80;99.90;;;;;;5253438;28;20050;-71
2023/07/11 10:38:58;;;;;;;8.25;7.50;;;32.00;99.90;;;;;;5253177;28;20117;-70
2023/07/11 10:41:39;;;;;;;8.35;7.65;;;32.10;99.90;;;;;;5253426;28;20171;-70
2023/07/11 10:44:25;;;;;;;8.35;6.95;;;32.30;99.90;;;;;;5253446;28;20029;-71
2023/07/11 10:46:56;;;;;;;11.20;8.93;;;32.00;99.90;;;;;;5253390;28;20043;-70
2023/07/11 10:49:36;;;;;;;6.88;6.32;;;32.40;99.90;;;;;;5253210;28;20472;-70
2023/07/11 10:52:26;;;;;;;6.68;5.97;;;32.40;99.90;;;;;;5253385;28;20109;-70
2023/07/11 10:55:09;;;;;;;7.13;5.88;;;32.10;89.80;;;;;;5253376;28;20028;-71
2023/07/11 10:57:50;;;;;;;6.25;5.70;;;32.50;99.60;;;;;;5253354;28;20024;-70
2023/07/11 11:00:38;;;;;;;6.88;5.22;;;32.60;99.90;;;;;;5253548;28;20059;-71
2023/07/11 11:03:38;;;;;;;5.18;4.68;;;32.70;98.50;;;;;;5250653;28;20043;-71
2023/07/11 11:06:36;;;;;;;6.10;4.90;;;32.70;99.90;;;;;;5249928;28;20496;-71
2023/07/11 11:09:25;;;;;;;5.38;4.88;;;32.90;95.50;;;;;;5249885;28;20090;-71
2023/07/11 11:12:22;;;;;;;7.65;4.85;;;32.80;96.80;;;;;;5249996;28;20024;-70
2023/07/11 11:15:04;;;;;;;5.13;4.20;;;32.90;97.10;;;;;;5246633;28;20036;-71
2023/07/11 11:18:29;;;;;;;9.50;5.00;;;32.60;81.60;;;;;;5249790;28;20441;-71
2023/07/11 11:21:23;;;;;;;6.65;4.20;;;32.80;98.10;;;;;;5224831;28;20032;-71
2023/07/11 11:24:04;;;;;;;5.38;4.70;;;32.90;95.50;;;;;;5249788;28;20040;-71
2023/07/11 11:26:45;;;;;;;12.23;4.82;;;33.10;95.10;;;;;;5249603;28;20415;-71
2023/07/11 11:29:47;;;;;;;6.65;4.93;;;33.10;95.90;;;;;;5249330;28;20040;-70
2023/07/11 11:32:31;;;;;;;4.60;4.13;;;33.10;94.90;;;;;;5249470;28;20126;-71
2023/07/11 11:35:07;;;;;;;8.38;4.72;;;33.10;94.20;;;;;;5249394;28;20033;-71
2023/07/11 11:37:51;;;;;;;7.18;4.45;;;33.10;92.00;;;;;;5249166;28;20064;-71
2023/07/11 11:40:25;;;;;;;9.43;5.55;;;33.00;88.50;;;;;;5249299;28;20091;-70
2023/07/11 11:43:03;;;;;;;9.20;4.97;;;33.00;88.50;;;;;;5249321;28;20028;-70
2023/07/11 11:45:34;;;;;;;6.78;5.05;;;32.60;90.00;;;;;;5249323;28;20029;-71
2023/07/11 11:48:12;;;;;;;6.20;5.20;;;32.40;86.10;;;;;;5249153;28;20472;-70
2023/07/11 11:50:44;;;;;;;9.10;5.20;;;32.50;89.60;;;;;;5249058;28;20115;-70
2023/07/11 11:53:18;;;;;;;9.43;4.97;;;32.20;90.00;;;;;;5249013;28;20058;-70
2023/07/11 11:55:55;;;;;;;5.00;4.60;;;32.70;86.40;;;;;;5249124;28;20473;-71
2023/07/11 11:58:29;;;;;;;5.68;4.55;;;32.30;82.40;;;;;;5248996;28;20036;-71
2023/07/11 12:01:00;;;;;;;6.70;4.22;;;32.40;76.80;;;;;;5248885;28;20025;-71
2023/07/11 12:03:34;;;;;;;5.75;4.32;;;32.30;80.10;;;;;;5248944;28;20376;-70
2023/07/11 12:06:30;;;;;;;6.00;4.55;;;32.50;84.40;;;;;;5248800;28;20150;-70
2023/07/11 12:09:16;;;;;;;5.45;4.95;;;33.00;83.70;;;;;;5248802;28;20503;-71
2023/07/11 12:12:09;;;;;;;5.63;4.60;;;33.20;83.80;;;;;;5248669;28;20054;-70
2023/07/11 12:14:42;;;;;;;6.65;5.00;;;33.40;86.80;;;;;;5247575;28;20024;-71
2023/07/11 12:17:31;;;;;;;6.68;4.75;;;33.50;77.00;;;;;;5249047;28;20468;-70
2023/07/11 12:20:08;;;;;;;5.20;4.70;;;33.40;79.20;;;;;;5248676;28;20029;-70
2023/07/11 12:22:39;;;;;;;6.43;4.50;;;33.40;74.70;;;;;;5248629;28;20021;-70
2023/07/11 12:25:12;;;;;;;4.95;3.88;;;33.50;80.20;;;;;;5248428;28;20020;-71
2023/07/11 12:27:48;;;;;;;6.35;4.60;;;33.40;77.40;;;;;;5248370;28;20445;-71
2023/07/11 12:30:40;;;;;;;5.60;5.13;;;33.60;76.70;;;;;;5248214;28;20040;-71
2023/07/11 12:33:32;;;;;;;7.07;6.32;;;33.30;77.30;;;;;;5248398;28;20373;-71
2023/07/11 12:36:20;;;;;;;6.07;5.13;;;33.20;75.00;;;;;;5248328;28;20060;-71
2023/07/11 12:39:00;;;;;;;7.30;5.05;;;33.10;83.30;;;;;;5248033;28;20373;-71
2023/07/11 12:42:01;;;;;;;7.88;5.00;;;32.60;81.00;;;;;;5248224;28;20029;-70
2023/07/11 12:44:34;;;;;;;5.75;5.20;;;32.90;80.10;;;;;;5248018;28;20392;-70
2023/07/11 12:47:12;;;;;;;7.03;5.57;;;33.10;79.60;;;;;;5248004;28;20029;-70
2023/07/11 12:49:45;;;;;;;11.05;5.88;;;32.50;77.10;;;;;;5247859;28;20033;-70
2023/07/11 12:52:19;;;;;;;10.15;5.72;;;32.40;81.00;;;;;;5248008;28;20388;-71
2023/07/11 12:54:50;;;;;;;6.05;4.75;;;32.90;82.60;;;;;;5247794;28;20081;-70
2023/07/11 12:57:26;;;;;;;9.02;5.10;;;32.90;81.40;;;;;;5247781;28;20469;-70
2023/07/11 12:59:57;;;;;;;6.97;6.18;;;33.10;80.90;;;;;;5247748;28;20527;-70
2023/07/11 13:02:30;;;;;;;7.10;4.82;;;32.60;78.10;;;;;;5247580;28;20033;-71
2023/07/11 13:05:01;;;;;;;7.18;4.85;;;33.00;83.70;;;;;;5247866;28;20077;-70
2023/07/11 13:07:32;;;;;;;7.70;5.22;;;33.20;84.50;;;;;;5247342;28;20484;-70
2023/07/11 13:10:25;;;;;;;8.00;7.22;;;33.10;81.80;;;;;;5247483;28;20382;-71
2023/07/11 13:12:58;;;;;;;7.25;6.00;;;32.10;78.00;;;;;;5247498;28;20029;-70
2023/07/11 13:15:29;;;;;;;5.00;4.55;;;32.90;80.80;;;;;;5247504;28;20103;-70